createdAt,value
2018-02-04T00:02:04.000Z,26.1
2018-02-04T00:03:04.000Z,26.1
2018-02-04T00:04:04.000Z,26.2
2018-02-04T00:06:04.000Z,26.3
2018-02-04T00:07:04.000Z,26.4
2018-02-04T00:08:04.000Z,26.4
2018-02-04T00:09:49.000Z,26.5
2018-02-04T00:11:04.000Z,26.5
2018-02-04T00:13:04.000Z,26.4
2018-02-04T00:15:04.000Z,26.4
2018-02-04T00:16:04.000Z,26.4
2018-02-04T00:17:49.000Z,26.4
2018-02-04T00:19:04.000Z,26.4
2018-02-04T00:21:04.000Z,26.4
2018-02-04T00:23:04.000Z,26.4
2018-02-04T00:24:49.000Z,26.5
2018-02-04T00:26:04.000Z,26.4
2018-02-04T00:28:05.000Z,26.4
2018-02-04T00:30:04.000Z,26.2
2018-02-04T00:31:04.000Z,26.2
2018-02-04T00:33:04.000Z,26.1
2018-02-04T00:35:04.000Z,26
2018-02-04T00:37:04.000Z,26
2018-02-04T00:38:04.000Z,26
2018-02-04T00:40:04.000Z,26
2018-02-04T00:41:49.000Z,26.1
2018-02-04T00:43:04.000Z,26.1
2018-02-04T00:44:04.000Z,26.1
2018-02-04T00:46:04.000Z,26.2
2018-02-04T00:47:04.000Z,26.2
2018-02-04T00:48:04.000Z,26.3
2018-02-04T00:50:04.000Z,26.3
2018-02-04T00:52:04.000Z,26.4
2018-02-04T00:53:04.000Z,26.4
2018-02-04T00:55:04.000Z,26.4
2018-02-04T00:56:04.000Z,26.4
2018-02-04T00:58:04.000Z,26.5
2018-02-04T00:59:04.000Z,26.5
2018-02-04T01:01:04.000Z,26.4
2018-02-04T01:02:49.000Z,26.4
2018-02-04T01:05:04.000Z,26.2
2018-02-04T01:06:04.000Z,26.2
2018-02-04T01:07:04.000Z,26.1
2018-02-04T01:09:04.000Z,26.1
2018-02-04T01:11:04.000Z,26
2018-02-04T01:13:04.000Z,26
2018-02-04T01:14:04.000Z,26
2018-02-04T01:16:04.000Z,26.1
2018-02-04T01:17:04.000Z,26.1
2018-02-04T01:19:04.000Z,26.1
2018-02-04T01:21:04.000Z,26.1
2018-02-04T01:22:04.000Z,26.2
2018-02-04T01:24:04.000Z,26.2
2018-02-04T01:25:49.000Z,25.6
2018-02-04T01:27:04.000Z,26.3
2018-02-04T01:28:04.000Z,26.3
2018-02-04T01:30:04.000Z,26.3
2018-02-04T01:31:04.000Z,26.4
2018-02-04T01:33:04.000Z,26.3
2018-02-04T01:35:04.000Z,26.3
2018-02-04T01:37:04.000Z,26.3
2018-02-04T01:39:04.000Z,26.2
2018-02-04T01:41:04.000Z,26.2
2018-02-04T01:43:04.000Z,26.2
2018-02-04T01:44:04.000Z,26.2
2018-02-04T01:46:04.000Z,26.1
2018-02-04T01:48:04.000Z,26.1
2018-02-04T01:49:04.000Z,26.1
2018-02-04T01:50:49.000Z,25.7
2018-02-04T01:52:04.000Z,26.2
2018-02-04T01:54:04.000Z,26.1
2018-02-04T01:56:04.000Z,26.1
2018-02-04T01:57:04.000Z,26.1
2018-02-04T01:59:04.000Z,26.1
2018-02-04T02:00:04.000Z,26.1
2018-02-04T02:02:04.000Z,26.1
2018-02-04T02:03:04.000Z,26.2
2018-02-04T02:04:48.000Z,26.3
2018-02-04T02:06:04.000Z,26.3
2018-02-04T02:08:04.000Z,26.2
2018-02-04T02:09:04.000Z,26.2
2018-02-04T02:11:04.000Z,26.3
2018-02-04T02:13:04.000Z,26.2
2018-02-04T02:15:04.000Z,26.2
2018-02-04T02:17:04.000Z,26.2
2018-02-04T02:19:04.000Z,26.1
2018-02-04T02:21:05.000Z,26.1
2018-02-04T02:23:04.000Z,26.1
2018-02-04T02:24:04.000Z,26.1
2018-02-04T02:26:04.000Z,26.1
2018-02-04T02:27:04.000Z,26.1
2018-02-04T02:28:50.000Z,26.2
2018-02-04T02:30:49.000Z,25.9
2018-02-04T02:33:04.000Z,25.9
2018-02-04T02:34:04.000Z,25.9
2018-02-04T02:35:04.000Z,26
2018-02-04T02:37:04.000Z,26
2018-02-04T02:38:04.000Z,26.1
2018-02-04T02:39:49.000Z,26.2
2018-02-04T02:41:04.000Z,26.2
2018-02-04T02:43:04.000Z,26.2
2018-02-04T02:45:04.000Z,26.1
2018-02-04T02:46:05.000Z,26.1
2018-02-04T02:48:04.000Z,26.1
2018-02-04T02:50:04.000Z,26.1
2018-02-04T02:52:04.000Z,26.1
2018-02-04T02:53:04.000Z,26.1
2018-02-04T02:55:04.000Z,26.2
2018-02-04T02:56:04.000Z,26.2
2018-02-04T02:57:05.000Z,26.3
2018-02-04T02:59:04.000Z,26.3
2018-02-04T03:01:04.000Z,26.2
2018-02-04T03:03:05.000Z,26.2
2018-02-04T03:05:04.000Z,26.2
2018-02-04T03:06:50.000Z,25.6
2018-02-04T03:08:04.000Z,26.1
2018-02-04T03:10:04.000Z,26.1
2018-02-04T03:11:04.000Z,26.2
2018-02-04T03:13:04.000Z,26.3
2018-02-04T03:15:04.000Z,26.3
2018-02-04T03:17:04.000Z,26.2
2018-02-04T03:18:04.000Z,26.2
2018-02-04T03:19:04.000Z,26.3
2018-02-04T03:21:04.000Z,26.3
2018-02-04T03:22:04.000Z,26.3
2018-02-04T03:24:04.000Z,26.2
2018-02-04T03:25:04.000Z,26.2
2018-02-04T03:27:04.000Z,26.3
2018-02-04T03:28:49.000Z,26.2
2018-02-04T03:30:04.000Z,26.2
2018-02-04T03:32:04.000Z,26.1
2018-02-04T03:33:49.000Z,26.1
2018-02-04T03:35:04.000Z,26.1
2018-02-04T03:36:04.000Z,26.2
2018-02-04T03:37:04.000Z,26.2
2018-02-04T03:39:04.000Z,26.3
2018-02-04T03:40:04.000Z,26.4
2018-02-04T03:42:04.000Z,26.4
2018-02-04T03:44:04.000Z,26.3
2018-02-04T03:45:04.000Z,26.3
2018-02-04T03:46:04.000Z,26.3
2018-02-04T03:48:04.000Z,26.2
2018-02-04T03:50:04.000Z,26.1
2018-02-04T03:51:49.000Z,25.6
2018-02-04T03:53:04.000Z,26
2018-02-04T03:54:04.000Z,26
2018-02-04T03:56:04.000Z,26
2018-02-04T03:58:04.000Z,25.9
2018-02-04T04:00:04.000Z,25.9
2018-02-04T04:01:04.000Z,25.9
2018-02-04T04:03:04.000Z,25.9
2018-02-04T04:04:04.000Z,26
2018-02-04T04:05:04.000Z,26.1
2018-02-04T04:06:04.000Z,26.2
2018-02-04T04:08:04.000Z,26.3
2018-02-04T04:09:04.000Z,26.3
2018-02-04T04:11:04.000Z,26.3
2018-02-04T04:13:04.000Z,26.2
2018-02-04T04:14:04.000Z,26.2
2018-02-04T04:15:04.000Z,26.2
2018-02-04T04:17:04.000Z,26.2
2018-02-04T04:19:04.000Z,26.2
2018-02-04T04:20:04.000Z,26.2
2018-02-04T04:22:04.000Z,26.3
2018-02-04T04:24:04.000Z,26.3
2018-02-04T04:26:04.000Z,26.2
2018-02-04T04:28:04.000Z,26.1
2018-02-04T04:30:04.000Z,26
2018-02-04T04:32:04.000Z,26
2018-02-04T04:33:04.000Z,26
2018-02-04T04:35:04.000Z,26.1
2018-02-04T04:37:04.000Z,26.1
2018-02-04T04:39:04.000Z,26.2
2018-02-04T04:41:04.000Z,26.2
2018-02-04T04:42:49.000Z,25.9
2018-02-04T04:44:04.000Z,26.1
2018-02-04T04:46:04.000Z,26.1
2018-02-04T04:48:04.000Z,26.1
2018-02-04T04:50:04.000Z,26
2018-02-04T04:52:04.000Z,26
2018-02-04T04:54:04.000Z,26
2018-02-04T04:55:49.000Z,26
2018-02-04T04:57:04.000Z,26
2018-02-04T04:59:04.000Z,26
2018-02-04T05:01:04.000Z,26
2018-02-04T05:03:04.000Z,26
2018-02-04T05:05:04.000Z,25.9
2018-02-04T05:07:04.000Z,25.9
2018-02-04T05:08:49.000Z,25.9
2018-02-04T05:10:04.000Z,25.9
2018-02-04T05:12:04.000Z,26
2018-02-04T05:14:04.000Z,26
2018-02-04T05:15:04.000Z,26
2018-02-04T05:17:04.000Z,26
2018-02-04T05:19:04.000Z,26.1
2018-02-04T05:21:04.000Z,26
2018-02-04T05:22:04.000Z,26
2018-02-04T05:23:04.000Z,26
2018-02-04T05:24:49.000Z,25.5
2018-02-04T05:26:04.000Z,26.1
2018-02-04T05:27:49.000Z,25.8
2018-02-04T05:29:04.000Z,26.1
2018-02-04T05:31:04.000Z,26
2018-02-04T05:32:04.000Z,26
2018-02-04T05:33:04.000Z,26
2018-02-04T05:35:04.000Z,26
2018-02-04T05:37:04.000Z,26
2018-02-04T05:39:04.000Z,26
2018-02-04T05:41:04.000Z,26
2018-02-04T05:43:04.000Z,26
2018-02-04T05:44:04.000Z,25.9
2018-02-04T05:45:04.000Z,25.9
2018-02-04T05:47:04.000Z,25.9
2018-02-04T05:48:49.000Z,25.9
2018-02-04T05:50:04.000Z,25.9
2018-02-04T05:51:04.000Z,25.9
2018-02-04T05:53:04.000Z,26
2018-02-04T05:55:04.000Z,26
2018-02-04T05:56:04.000Z,26.1
2018-02-04T05:57:04.000Z,26.2
2018-02-04T05:59:04.000Z,26.2
2018-02-04T06:01:04.000Z,26.2
2018-02-04T06:02:04.000Z,26.2
2018-02-04T06:04:04.000Z,26.2
2018-02-04T06:05:04.000Z,26.2
2018-02-04T06:07:04.000Z,26.3
2018-02-04T06:09:04.000Z,26.2
2018-02-04T06:11:04.000Z,26.2
2018-02-04T06:13:04.000Z,26.1
2018-02-04T06:14:49.000Z,25.3
2018-02-04T06:16:04.000Z,26
2018-02-04T06:18:04.000Z,26
2018-02-04T06:19:04.000Z,26
2018-02-04T06:20:49.000Z,25.4
2018-02-04T06:22:04.000Z,26.1
2018-02-04T06:24:04.000Z,26
2018-02-04T06:25:04.000Z,26
2018-02-04T06:27:04.000Z,26.1
2018-02-04T06:28:04.000Z,26.1
2018-02-04T06:30:04.000Z,26.1
2018-02-04T06:31:04.000Z,26.1
2018-02-04T06:33:04.000Z,26
2018-02-04T06:35:04.000Z,26
2018-02-04T06:36:49.000Z,25.9
2018-02-04T06:38:04.000Z,25.9
2018-02-04T06:39:04.000Z,25.9
2018-02-04T06:41:04.000Z,25.9
2018-02-04T06:43:04.000Z,25.9
2018-02-04T06:44:49.000Z,25.6
2018-02-04T06:46:04.000Z,25.9
2018-02-04T06:47:04.000Z,25.9
2018-02-04T06:49:04.000Z,25.9
2018-02-04T06:50:04.000Z,26
2018-02-04T06:51:04.000Z,26
2018-02-04T06:52:04.000Z,26.1
2018-02-04T06:54:04.000Z,26.1
2018-02-04T06:55:04.000Z,26.1
2018-02-04T06:57:04.000Z,26.1
2018-02-04T06:59:04.000Z,26
2018-02-04T07:00:49.000Z,25.6
2018-02-04T07:02:04.000Z,26
2018-02-04T07:03:04.000Z,26
2018-02-04T07:05:04.000Z,26
2018-02-04T07:06:04.000Z,26
2018-02-04T07:08:04.000Z,26.1
2018-02-04T07:10:04.000Z,26.1
2018-02-04T07:12:04.000Z,26
2018-02-04T07:14:04.000Z,26
2018-02-04T07:16:04.000Z,25.8
2018-02-04T07:18:04.000Z,25.7
2018-02-04T07:19:04.000Z,25.7
2018-02-04T07:21:04.000Z,25.8
2018-02-04T07:23:04.000Z,25.8
2018-02-04T07:25:04.000Z,25.7
2018-02-04T07:27:04.000Z,25.7
2018-02-04T07:29:04.000Z,25.6
2018-02-04T07:30:04.000Z,25.6
2018-02-04T07:32:04.000Z,25.7
2018-02-04T07:34:04.000Z,25.7
2018-02-04T07:36:04.000Z,25.7
2018-02-04T07:37:49.000Z,25.8
2018-02-04T07:39:04.000Z,25.9
2018-02-04T07:41:04.000Z,25.9
2018-02-04T07:42:04.000Z,25.9
2018-02-04T07:44:04.000Z,26
2018-02-04T07:45:04.000Z,26.1
2018-02-04T07:47:04.000Z,26.1
2018-02-04T07:48:04.000Z,26.1
2018-02-04T07:50:04.000Z,26.2
2018-02-04T07:52:04.000Z,26.3
2018-02-04T07:54:04.000Z,26.5
2018-02-04T07:55:04.000Z,26.6
2018-02-04T07:56:04.000Z,26.6
2018-02-04T07:57:04.000Z,26.7
2018-02-04T07:58:04.000Z,26.8
2018-02-04T07:59:04.000Z,26.9
2018-02-04T08:01:04.000Z,27.1
2018-02-04T08:02:04.000Z,27.1
2018-02-04T08:04:04.000Z,27.3
2018-02-04T08:06:04.000Z,27.4
2018-02-04T08:07:04.000Z,27.4
2018-02-04T08:08:04.000Z,27.4
2018-02-04T08:09:04.000Z,27.4
2018-02-04T08:10:49.000Z,26.7
2018-02-04T08:12:04.000Z,27.3
2018-02-04T08:13:04.000Z,27.3
2018-02-04T08:15:04.000Z,27.3
2018-02-04T08:16:04.000Z,27.2
2018-02-04T08:18:04.000Z,27.1
2018-02-04T08:20:04.000Z,26.9
2018-02-04T08:21:04.000Z,26.9
2018-02-04T08:22:04.000Z,27
2018-02-04T08:23:49.000Z,27
2018-02-04T08:25:04.000Z,27
2018-02-04T08:27:04.000Z,27
2018-02-04T08:29:04.000Z,27
2018-02-04T08:30:04.000Z,27
2018-02-04T08:31:04.000Z,27
2018-02-04T08:33:04.000Z,27
2018-02-04T08:35:05.000Z,26.9
2018-02-04T08:37:05.000Z,26.8
2018-02-04T08:39:05.000Z,26.8
2018-02-04T08:41:05.000Z,26.7
2018-02-04T08:43:05.000Z,26.7
2018-02-04T08:44:05.000Z,26.7
2018-02-04T08:46:05.000Z,26.7
2018-02-04T08:48:04.000Z,26.6
2018-02-04T08:49:05.000Z,26.6
2018-02-04T08:50:05.000Z,26.6
2018-02-04T08:52:05.000Z,26.6
2018-02-04T08:54:05.000Z,26.7
2018-02-04T08:55:50.000Z,26.3
2018-02-04T08:57:05.000Z,26.5
2018-02-04T08:59:05.000Z,26.5
2018-02-04T09:01:05.000Z,26.5
2018-02-04T09:02:05.000Z,26.5
2018-02-04T09:04:05.000Z,26.5
2018-02-04T09:05:50.000Z,26.5
2018-02-04T09:08:05.000Z,26.4
2018-02-04T09:10:04.000Z,26.3
2018-02-04T09:11:05.000Z,26.3
2018-02-04T09:12:05.000Z,26.4
2018-02-04T09:14:04.000Z,26.6
2018-02-04T09:15:04.000Z,26.6
2018-02-04T09:16:05.000Z,26.5
2018-02-04T09:17:05.000Z,26.6
2018-02-04T09:18:05.000Z,26.6
2018-02-04T09:20:04.000Z,26.6
2018-02-04T09:21:05.000Z,26.7
2018-02-04T09:23:05.000Z,26.7
2018-02-04T09:25:04.000Z,26.6
2018-02-04T09:26:05.000Z,26.5
2018-02-04T09:27:05.000Z,26.5
2018-02-04T09:28:05.000Z,26.4
2018-02-04T09:30:04.000Z,26.5
2018-02-04T09:31:05.000Z,26.5
2018-02-04T09:32:05.000Z,26.6
2018-02-04T09:33:05.000Z,26.6
2018-02-04T09:35:05.000Z,26.7
2018-02-04T09:36:49.000Z,26.6
2018-02-04T09:37:50.000Z,26.2
2018-02-04T09:39:04.000Z,26.6
2018-02-04T09:40:04.000Z,26.6
2018-02-04T09:41:04.000Z,26.6
2018-02-04T09:43:04.000Z,26.7
2018-02-04T09:44:04.000Z,26.7
2018-02-04T09:46:04.000Z,26.7
2018-02-04T09:48:04.000Z,26.6
2018-02-04T09:49:49.000Z,26.3
2018-02-04T09:51:04.000Z,26.5
2018-02-04T09:52:04.000Z,26.4
2018-02-04T09:54:04.000Z,26.4
2018-02-04T09:56:04.000Z,26.5
2018-02-04T09:57:04.000Z,26.5
2018-02-04T09:58:04.000Z,26.6
2018-02-04T10:00:04.000Z,26.7
2018-02-04T10:01:04.000Z,26.8
2018-02-04T10:03:04.000Z,26.8
2018-02-04T10:04:04.000Z,26.8
2018-02-04T10:05:04.000Z,26.9
2018-02-04T10:07:04.000Z,27
2018-02-04T10:08:04.000Z,27
2018-02-04T10:09:04.000Z,27
2018-02-04T10:10:04.000Z,27
2018-02-04T10:12:04.000Z,27
2018-02-04T10:14:04.000Z,26.9
2018-02-04T10:16:04.000Z,26.9
2018-02-04T10:17:04.000Z,26.8
2018-02-04T10:19:04.000Z,26.8
2018-02-04T10:21:04.000Z,26.7
2018-02-04T10:23:04.000Z,26.6
2018-02-04T10:24:04.000Z,26.6
2018-02-04T10:26:04.000Z,26.5
2018-02-04T10:27:04.000Z,26.5
2018-02-04T10:29:04.000Z,26.5
2018-02-04T10:30:04.000Z,26.6
2018-02-04T10:32:04.000Z,26.7
2018-02-04T10:34:04.000Z,26.7
2018-02-04T10:36:04.000Z,26.7
2018-02-04T10:37:49.000Z,26.6
2018-02-04T10:39:04.000Z,26.6
2018-02-04T10:40:49.000Z,26.7
2018-02-04T10:46:05.000Z,26.3
2018-02-04T10:48:04.000Z,26.4
2018-02-04T10:50:05.000Z,26.4
2018-02-04T10:52:05.000Z,26.5
2018-02-04T10:53:05.000Z,26.6
2018-02-04T10:55:05.000Z,26.8
2018-02-04T10:56:05.000Z,26.9
2018-02-04T10:58:05.000Z,27
2018-02-04T11:00:05.000Z,27.1
2018-02-04T11:01:05.000Z,27.3
2018-02-04T11:03:04.000Z,28
2018-02-04T11:04:05.000Z,28.6
2018-02-04T11:05:49.000Z,29.4
2018-02-04T11:07:05.000Z,29.4
2018-02-04T11:08:05.000Z,29.3
2018-02-04T11:09:05.000Z,29.2
2018-02-04T11:10:05.000Z,29
2018-02-04T11:11:50.000Z,28.3
2018-02-04T11:13:05.000Z,28.5
2018-02-04T11:15:05.000Z,28.3
2018-02-04T11:17:05.000Z,28
2018-02-04T11:18:05.000Z,27.9
2018-02-04T11:19:05.000Z,27.9
2018-02-04T11:21:05.000Z,27.9
2018-02-04T11:22:05.000Z,28
2018-02-04T11:24:05.000Z,28
2018-02-04T11:25:05.000Z,28
2018-02-04T11:27:05.000Z,27.9
2018-02-04T11:28:05.000Z,27.9
2018-02-04T11:29:50.000Z,27.3
2018-02-04T12:18:09.000Z,25.2
2018-02-04T12:19:55.000Z,25.4
2018-02-04T12:21:55.000Z,25.8
2018-02-04T12:23:55.000Z,26.1
2018-02-04T12:25:55.000Z,26.4
2018-02-04T12:26:55.000Z,26.5
2018-02-04T12:28:55.000Z,26.8
2018-02-04T12:30:55.000Z,26.9
2018-02-04T12:31:55.000Z,27
2018-02-04T12:33:55.000Z,27.2
2018-02-04T12:35:55.000Z,27.3
2018-02-04T12:37:55.000Z,27.3
2018-02-04T12:38:55.000Z,27.2
2018-02-04T12:40:55.000Z,27.2
2018-02-04T12:41:55.000Z,27.2
2018-02-04T12:43:55.000Z,27.2
2018-02-04T12:47:41.000Z,26.7
2018-02-04T12:49:41.000Z,26.7
2018-02-04T12:50:41.000Z,26.8
2018-02-04T12:51:41.000Z,26.9
2018-02-04T12:53:26.000Z,26.9
2018-02-04T12:54:26.000Z,26.9
2018-02-04T12:55:41.000Z,26.9
2018-02-04T12:57:41.000Z,26.8
2018-02-04T12:58:41.000Z,26.8
2018-02-04T13:00:41.000Z,26.9
2018-02-04T13:01:41.000Z,26.9
2018-02-04T13:02:41.000Z,27
2018-02-04T13:04:41.000Z,27.1
2018-02-04T13:06:41.000Z,27
2018-02-04T13:08:41.000Z,27
2018-02-04T13:10:26.000Z,26.8
2018-02-04T13:12:41.000Z,26.9
2018-02-04T13:13:41.000Z,27
2018-02-04T13:15:41.000Z,27
2018-02-04T13:16:41.000Z,27
2018-02-04T13:17:41.000Z,27
2018-02-04T13:19:41.000Z,27.1
2018-02-04T13:21:41.000Z,27.2
2018-02-04T13:22:41.000Z,27.2
2018-02-04T13:23:41.000Z,27.2
2018-02-04T13:25:41.000Z,27.2
2018-02-04T13:27:41.000Z,27.2
2018-02-04T13:29:41.000Z,27.1
2018-02-04T13:31:41.000Z,27
2018-02-04T13:33:41.000Z,27
2018-02-04T13:35:26.000Z,27
2018-02-04T13:36:41.000Z,27.1
2018-02-04T13:37:41.000Z,27.1
2018-02-04T13:38:41.000Z,27.1
2018-02-04T13:39:41.000Z,27.2
2018-02-04T13:41:41.000Z,27.3
2018-02-04T13:42:41.000Z,27.4
2018-02-04T13:44:41.000Z,27.5
2018-02-04T13:46:41.000Z,27.5
2018-02-04T13:48:41.000Z,27.5
2018-02-04T13:50:41.000Z,27.5
2018-02-04T13:51:41.000Z,27.5
2018-02-04T13:53:41.000Z,27.7
2018-02-04T13:54:41.000Z,27.7
2018-02-04T13:56:41.000Z,27.7
2018-02-04T13:57:41.000Z,27.6
2018-02-04T13:59:41.000Z,27.5
2018-02-04T14:01:41.000Z,27.3
2018-02-04T14:03:26.000Z,27.2
2018-02-04T14:04:41.000Z,27.1
2018-02-04T14:05:41.000Z,27.1
2018-02-04T14:06:41.000Z,27.1
2018-02-04T14:07:41.000Z,27.1
2018-02-04T14:09:41.000Z,27.2
2018-02-04T14:11:41.000Z,27.1
2018-02-04T14:13:26.000Z,27.1
2018-02-04T14:14:41.000Z,27.1
2018-02-04T14:16:41.000Z,27.1
2018-02-04T14:18:41.000Z,27.1
2018-02-04T14:20:41.000Z,27.2
2018-02-04T15:09:30.000Z,24.5
2018-02-04T15:11:16.000Z,24.7
2018-02-04T15:13:16.000Z,25
2018-02-04T15:15:16.000Z,25.3
2018-02-04T15:17:16.000Z,25.5
2018-02-04T15:19:16.000Z,25.7
2018-02-04T15:21:16.000Z,25.7
2018-02-04T15:22:16.000Z,25.8
2018-02-04T15:24:16.000Z,25.9
2018-02-04T15:25:16.000Z,26
2018-02-04T15:27:16.000Z,26.1
2018-02-04T15:28:16.000Z,26.2
2018-02-04T15:30:01.000Z,26.3
2018-02-04T15:31:16.000Z,26.3
2018-02-04T15:32:16.000Z,26.4
2018-02-04T15:33:16.000Z,26.5
2018-02-04T15:35:16.000Z,26.6
2018-02-04T15:37:16.000Z,26.6
2018-02-04T15:39:16.000Z,26.5
2018-02-04T15:40:16.000Z,26.5
2018-02-04T15:41:16.000Z,26.5
2018-02-04T15:43:16.000Z,26.5
2018-02-04T15:44:16.000Z,26.5
2018-02-04T15:45:16.000Z,26.6
2018-02-04T15:46:16.000Z,26.6
2018-02-04T15:47:16.000Z,26.6
2018-02-04T15:49:16.000Z,26.5
2018-02-04T15:51:16.000Z,26.5
2018-02-04T15:53:16.000Z,26.3
2018-02-04T15:55:16.000Z,26.2
2018-02-04T15:56:16.000Z,26.2
2018-02-04T15:58:16.000Z,26.2
2018-02-04T16:00:16.000Z,26.2
2018-02-04T16:02:16.000Z,26.2
2018-02-04T16:03:16.000Z,26.1
2018-02-04T16:04:16.000Z,26.1
2018-02-04T16:05:16.000Z,26.2
2018-02-04T16:07:01.000Z,26.3
2018-02-04T16:08:16.000Z,26.3
2018-02-04T16:09:16.000Z,26.3
2018-02-04T16:11:16.000Z,26.2
2018-02-04T16:13:16.000Z,26.2
2018-02-04T16:14:16.000Z,26.3
2018-02-04T16:16:16.000Z,26.4
2018-02-04T16:17:16.000Z,26.4
2018-02-04T16:19:16.000Z,26.4
2018-02-04T16:21:01.000Z,26.4
2018-02-04T16:22:16.000Z,26.4
2018-02-04T16:23:16.000Z,26.4
2018-02-04T16:24:16.000Z,26.4
2018-02-04T16:26:16.000Z,26.4
2018-02-04T16:27:16.000Z,26.4
2018-02-04T16:29:01.000Z,26.5
2018-02-04T16:30:16.000Z,26.4
2018-02-04T16:32:16.000Z,26.3
2018-02-04T16:33:16.000Z,26.2
2018-02-04T16:35:16.000Z,26.2
2018-02-04T16:36:16.000Z,26.2
2018-02-04T16:38:16.000Z,26.2
2018-02-04T16:40:01.000Z,26.1
2018-02-04T16:41:16.000Z,26.1
2018-02-04T16:42:16.000Z,26.1
2018-02-04T16:43:16.000Z,26.2
2018-02-04T16:45:16.000Z,26.2
2018-02-04T16:46:16.000Z,26.2
2018-02-04T16:48:16.000Z,26.2
2018-02-04T16:50:16.000Z,26.1
2018-02-04T16:52:01.000Z,26.1
2018-02-04T16:53:16.000Z,26.1
2018-02-04T16:54:16.000Z,26.1
2018-02-04T16:56:16.000Z,26.2
2018-02-04T16:58:16.000Z,26.2
2018-02-04T16:59:16.000Z,26.2
2018-02-04T17:00:16.000Z,26.2
2018-02-04T17:02:16.000Z,26.2
2018-02-04T17:04:16.000Z,26.2
2018-02-04T17:06:16.000Z,26.2
2018-02-04T17:07:16.000Z,26.2
2018-02-04T17:08:16.000Z,26.2
2018-02-04T17:10:16.000Z,26.2
2018-02-04T17:12:16.000Z,26.1
2018-02-04T17:13:16.000Z,26.1
2018-02-04T17:15:16.000Z,26.1
2018-02-04T17:16:16.000Z,26.1
2018-02-04T17:18:16.000Z,26.2
2018-02-04T17:20:16.000Z,26.1
2018-02-04T17:22:16.000Z,26.1
2018-02-04T17:24:16.000Z,26.1
2018-02-04T17:26:16.000Z,26.1
2018-02-04T17:27:16.000Z,26.1
2018-02-04T17:28:16.000Z,26.2
2018-02-04T17:30:16.000Z,26.2
2018-02-04T17:32:16.000Z,26.2
2018-02-04T17:34:16.000Z,26.2
2018-02-04T17:36:16.000Z,26.1
2018-02-04T17:38:16.000Z,26.1
2018-02-04T17:39:16.000Z,26.1
2018-02-04T17:41:16.000Z,26.1
2018-02-04T17:42:16.000Z,26.1
2018-02-04T17:43:16.000Z,26.1
2018-02-04T17:45:01.000Z,26
2018-02-04T17:46:16.000Z,26
2018-02-04T17:48:01.000Z,26
2018-02-04T17:49:16.000Z,26
2018-02-04T17:50:16.000Z,26
2018-02-04T17:52:16.000Z,26
2018-02-04T17:54:16.000Z,26
2018-02-04T17:55:16.000Z,26.1
2018-02-04T17:57:16.000Z,26.1
2018-02-04T17:58:16.000Z,26.1
2018-02-04T18:00:16.000Z,26.1
2018-02-04T18:02:16.000Z,26.1
2018-02-04T18:03:16.000Z,26.1
2018-02-04T18:05:16.000Z,26.1
2018-02-04T18:06:16.000Z,26.1
2018-02-04T18:08:16.000Z,26.1
2018-02-04T18:10:16.000Z,26
2018-02-04T18:12:16.000Z,25.9
2018-02-04T18:14:16.000Z,25.9
2018-02-04T18:15:16.000Z,25.9
2018-02-04T18:16:16.000Z,26
2018-02-04T18:18:16.000Z,26
2018-02-04T18:19:16.000Z,25.9
2018-02-04T18:21:01.000Z,26
2018-02-04T18:22:01.000Z,25.8
2018-02-04T18:23:16.000Z,25.9
2018-02-04T18:25:16.000Z,25.9
2018-02-04T18:26:16.000Z,25.8
2018-02-04T18:28:16.000Z,25.8
2018-02-04T18:30:16.000Z,25.7
2018-02-04T18:32:16.000Z,25.8
2018-02-04T18:33:16.000Z,25.8
2018-02-04T18:34:16.000Z,25.9
2018-02-04T18:35:16.000Z,25.9
2018-02-04T18:37:16.000Z,25.9
2018-02-04T18:39:16.000Z,25.9
2018-02-04T18:41:16.000Z,25.8
2018-02-04T18:42:16.000Z,25.8
2018-02-04T18:44:01.000Z,25.8
2018-02-04T18:45:16.000Z,25.7
2018-02-04T18:46:16.000Z,25.7
2018-02-04T18:47:16.000Z,25.8
2018-02-04T18:49:16.000Z,25.9
2018-02-04T18:50:16.000Z,25.9
2018-02-04T18:52:16.000Z,26
2018-02-04T18:54:16.000Z,26
2018-02-04T18:56:16.000Z,25.9
2018-02-04T18:58:16.000Z,25.8
2018-02-04T19:00:16.000Z,25.8
2018-02-04T19:01:16.000Z,25.8
2018-02-04T19:02:16.000Z,25.9
2018-02-04T19:03:16.000Z,25.9
2018-02-04T19:05:16.000Z,26
2018-02-04T19:06:16.000Z,25.9
2018-02-04T19:08:16.000Z,25.9
2018-02-04T19:10:16.000Z,25.9
2018-02-04T19:11:16.000Z,25.9
2018-02-04T19:13:16.000Z,25.9
2018-02-04T19:15:01.000Z,25.8
2018-02-04T19:16:16.000Z,25.8
2018-02-04T19:18:16.000Z,25.8
2018-02-04T19:20:16.000Z,25.8
2018-02-04T19:22:16.000Z,25.8
2018-02-04T19:23:16.000Z,25.9
2018-02-04T19:25:16.000Z,25.9
2018-02-04T19:27:16.000Z,25.9
2018-02-04T19:29:16.000Z,25.8
2018-02-04T19:31:16.000Z,25.8
2018-02-04T19:33:16.000Z,25.9
2018-02-04T19:35:16.000Z,25.8
2018-02-04T19:36:16.000Z,25.8
2018-02-04T19:37:16.000Z,25.9
2018-02-04T19:39:16.000Z,26
2018-02-04T19:41:01.000Z,26
2018-02-04T19:42:16.000Z,26
2018-02-04T19:43:16.000Z,26
2018-02-04T19:45:16.000Z,26
2018-02-04T19:47:16.000Z,26
2018-02-04T19:48:16.000Z,25.9
2018-02-04T19:50:01.000Z,25.9
2018-02-04T19:51:01.000Z,25.5
2018-02-04T19:52:16.000Z,25.8
2018-02-04T19:53:16.000Z,25.9
2018-02-04T19:55:16.000Z,25.9
2018-02-04T19:57:01.000Z,26
2018-02-04T19:58:16.000Z,25.9
2018-02-04T20:00:01.000Z,25.6
2018-02-04T20:01:16.000Z,25.9
2018-02-04T20:03:16.000Z,25.9
2018-02-04T20:05:16.000Z,25.8
2018-02-04T20:07:16.000Z,25.8
2018-02-04T20:09:16.000Z,25.7
2018-02-04T20:11:16.000Z,25.8
2018-02-04T20:12:16.000Z,25.8
2018-02-04T20:14:01.000Z,25.8
2018-02-04T20:15:16.000Z,25.8
2018-02-04T20:17:16.000Z,25.7
2018-02-04T20:19:16.000Z,25.6
2018-02-04T20:21:16.000Z,25.6
2018-02-04T20:22:16.000Z,25.6
2018-02-04T20:24:16.000Z,25.7
2018-02-04T20:26:16.000Z,25.7
2018-02-04T20:27:16.000Z,25.8
2018-02-04T20:29:16.000Z,25.8
2018-02-04T20:31:01.000Z,25.5
2018-02-04T20:32:16.000Z,25.8
2018-02-04T20:33:16.000Z,25.8
2018-02-04T20:35:16.000Z,25.8
2018-02-04T20:37:01.000Z,25.8
2018-02-04T20:38:16.000Z,25.7
2018-02-04T20:39:16.000Z,25.7
2018-02-04T20:41:16.000Z,25.7
2018-02-04T20:43:16.000Z,25.8
2018-02-04T20:45:16.000Z,25.7
2018-02-04T20:47:16.000Z,25.7
2018-02-04T20:48:16.000Z,25.7
2018-02-04T20:50:16.000Z,25.8
2018-02-04T20:52:16.000Z,25.8
2018-02-04T20:54:16.000Z,25.8
2018-02-04T20:55:16.000Z,25.8
2018-02-04T20:57:16.000Z,25.9
2018-02-04T20:59:16.000Z,25.9
2018-02-04T21:01:01.000Z,25.8
2018-02-04T21:02:16.000Z,25.8
2018-02-04T21:04:16.000Z,25.8
2018-02-04T21:06:16.000Z,25.8
2018-02-04T21:08:01.000Z,25.9
2018-02-04T21:09:16.000Z,25.8
2018-02-04T21:11:16.000Z,25.8
2018-02-04T21:12:16.000Z,25.8
2018-02-04T21:14:01.000Z,25.9
2018-02-04T21:15:16.000Z,25.9
2018-02-04T21:17:16.000Z,25.9
2018-02-04T21:19:16.000Z,25.8
2018-02-04T21:21:16.000Z,25.8
2018-02-04T21:22:16.000Z,25.8
2018-02-04T21:24:16.000Z,25.8
2018-02-04T21:26:16.000Z,25.8
2018-02-04T21:27:16.000Z,25.8
2018-02-04T21:29:16.000Z,25.8
2018-02-04T21:31:16.000Z,25.8
2018-02-04T21:33:16.000Z,25.7
2018-02-04T21:34:16.000Z,25.7
2018-02-04T21:36:01.000Z,25.7
2018-02-04T21:37:16.000Z,25.7
2018-02-04T21:39:16.000Z,25.7
2018-02-04T21:40:16.000Z,25.7
2018-02-04T21:41:16.000Z,25.8
2018-02-04T21:42:16.000Z,25.9
2018-02-04T21:43:16.000Z,25.9
2018-02-04T21:45:16.000Z,26
2018-02-04T21:46:16.000Z,26
2018-02-04T21:48:16.000Z,25.9
2018-02-04T21:50:16.000Z,25.7
2018-02-04T21:52:01.000Z,25.3
2018-02-04T21:53:16.000Z,25.5
2018-02-04T21:55:16.000Z,25.5
2018-02-04T21:56:16.000Z,25.6
2018-02-04T21:57:16.000Z,25.6
2018-02-04T21:58:16.000Z,25.6
2018-02-04T22:00:16.000Z,25.6
2018-02-04T22:02:16.000Z,25.6
2018-02-04T22:04:16.000Z,25.5
2018-02-04T22:05:16.000Z,25.5
2018-02-04T22:06:16.000Z,25.6
2018-02-04T22:08:16.000Z,25.7
2018-02-04T22:10:01.000Z,25.8
2018-02-04T22:11:01.000Z,25.6
2018-02-04T22:12:16.000Z,25.8
2018-02-04T22:14:16.000Z,25.8
2018-02-04T22:15:16.000Z,25.8
2018-02-04T22:17:01.000Z,25.9
2018-02-04T22:18:16.000Z,25.9
2018-02-04T22:20:01.000Z,25.8
2018-02-04T22:21:16.000Z,25.9
2018-02-04T22:23:16.000Z,25.8
2018-02-04T22:24:16.000Z,25.8
2018-02-04T22:25:16.000Z,25.8
2018-02-04T22:26:16.000Z,25.8
2018-02-04T22:28:01.000Z,25.5
2018-02-04T22:29:16.000Z,25.8
2018-02-04T22:30:16.000Z,25.9
2018-02-04T22:31:16.000Z,25.9
2018-02-04T22:32:16.000Z,25.9
2018-02-04T22:34:01.000Z,25.4
2018-02-04T22:35:16.000Z,26
2018-02-04T22:36:16.000Z,26
2018-02-04T22:38:16.000Z,26
2018-02-04T22:39:16.000Z,26
2018-02-04T22:40:16.000Z,26.1
2018-02-04T22:42:16.000Z,26.1
2018-02-04T22:44:00.000Z,26
2018-02-04T22:45:01.000Z,25.2
2018-02-04T22:46:16.000Z,25.8
2018-02-04T22:48:00.000Z,25.7
2018-02-04T22:49:01.000Z,25
2018-02-04T22:50:15.000Z,25.6
2018-02-04T22:51:16.000Z,25.7
2018-02-04T22:53:16.000Z,25.7